createdAt,value
2022-11-13T00:02:30.429Z,64.49
2022-11-13T00:05:18.415Z,64.68
2022-11-13T00:08:04.838Z,64.11
2022-11-13T00:10:51.613Z,63.77
2022-11-13T00:13:38.114Z,63.82
2022-11-13T00:16:24.798Z,64.24
2022-11-13T00:19:11.464Z,64.43
2022-11-13T00:22:00.229Z,64.69
2022-11-13T00:24:46.787Z,64.80
2022-11-13T00:27:33.570Z,65.17
2022-11-13T00:30:20.256Z,64.86
2022-11-13T00:33:06.891Z,64.93
2022-11-13T00:35:53.686Z,64.61
2022-11-13T00:38:41.446Z,64.55
2022-11-13T00:41:27.984Z,64.55
2022-11-13T00:44:14.876Z,64.46
2022-11-13T00:47:01.286Z,64.67
2022-11-13T00:49:47.741Z,64.54
2022-11-13T00:52:34.248Z,64.08
2022-11-13T00:55:22.059Z,64.47
2022-11-13T00:58:08.493Z,64.38
2022-11-13T01:00:55.272Z,64.68
2022-11-13T01:03:42.310Z,64.33
2022-11-13T01:06:29.680Z,64.57
2022-11-13T01:09:16.250Z,64.34
2022-11-13T01:12:04.158Z,64.14
2022-11-13T01:14:51.298Z,64.26
2022-11-13T01:17:38.443Z,64.36
2022-11-13T01:20:26.168Z,63.76
2022-11-13T01:23:12.739Z,64.07
2022-11-13T01:26:07.044Z,64.58
2022-11-13T01:28:57.061Z,64.22
2022-11-13T01:31:43.971Z,63.87
2022-11-13T01:34:30.768Z,64.02
2022-11-13T01:37:17.370Z,64.41
2022-11-13T01:40:04.354Z,64.00
2022-11-13T01:42:51.095Z,64.20
2022-11-13T01:46:07.378Z,64.20
2022-11-13T01:48:59.528Z,64.23
2022-11-13T01:51:50.825Z,64.23
2022-11-13T01:54:42.676Z,64.09
2022-11-13T01:57:29.865Z,63.86
2022-11-13T02:00:17.420Z,63.86
2022-11-13T02:03:05.668Z,63.46
2022-11-13T02:05:52.404Z,63.81
2022-11-13T02:08:39.707Z,63.66
2022-11-13T02:11:27.013Z,63.69
2022-11-13T02:14:15.321Z,63.52
2022-11-13T02:17:05.592Z,63.86
2022-11-13T02:20:02.746Z,63.55
2022-11-13T02:22:55.435Z,63.44
2022-11-13T02:25:44.432Z,63.79
2022-11-13T02:28:31.138Z,63.72
2022-11-13T02:31:17.895Z,63.80
2022-11-13T02:34:04.859Z,63.60
2022-11-13T02:36:51.747Z,63.80
2022-11-13T02:39:38.788Z,63.59
2022-11-13T02:42:27.118Z,63.70
2022-11-13T02:45:13.480Z,63.43
2022-11-13T02:48:00.894Z,63.77
2022-11-13T02:50:48.140Z,64.02
2022-11-13T02:53:34.753Z,63.93
2022-11-13T02:56:21.497Z,63.37
2022-11-13T02:59:09.545Z,63.81
2022-11-13T03:01:56.128Z,63.36
2022-11-13T03:05:10.896Z,63.57
2022-11-13T03:07:50.041Z,63.79
2022-11-13T03:10:37.506Z,63.65
2022-11-13T03:13:24.265Z,64.11
2022-11-13T03:16:14.028Z,63.84
2022-11-13T03:19:00.494Z,63.77
2022-11-13T03:21:47.244Z,63.34
2022-11-13T03:24:33.781Z,63.82
2022-11-13T03:27:20.859Z,63.52
2022-11-13T03:30:09.435Z,63.51
2022-11-13T03:32:58.228Z,63.54
2022-11-13T03:35:47.143Z,63.67
2022-11-13T03:38:33.562Z,63.42
2022-11-13T03:41:20.153Z,63.48
2022-11-13T03:44:07.135Z,63.46
2022-11-13T03:46:53.752Z,63.46
2022-11-13T03:49:41.400Z,63.74
2022-11-13T03:52:28.394Z,63.78
2022-11-13T03:55:15.152Z,63.54
2022-11-13T03:58:01.676Z,63.41
2022-11-13T04:00:48.818Z,63.74
2022-11-13T04:03:35.144Z,63.67
2022-11-13T04:06:23.161Z,64.02
2022-11-13T04:09:09.816Z,63.95
2022-11-13T04:11:56.093Z,63.81
2022-11-13T04:14:43.033Z,63.96
2022-11-13T04:17:29.617Z,64.04
2022-11-13T04:20:16.995Z,64.29
2022-11-13T04:23:07.850Z,63.79
2022-11-13T04:25:55.052Z,64.12
2022-11-13T04:28:41.776Z,63.84
2022-11-13T04:31:28.468Z,63.70
2022-11-13T04:34:15.386Z,64.23
2022-11-13T04:37:01.982Z,64.16
2022-11-13T04:39:49.807Z,64.32
2022-11-13T04:42:54.883Z,63.93
2022-11-13T04:45:48.702Z,64.02
2022-11-13T04:48:42.377Z,63.92
2022-11-13T04:51:29.867Z,63.65
2022-11-13T04:54:16.884Z,63.99
2022-11-13T04:57:05.333Z,64.11
2022-11-13T04:59:51.977Z,63.61
2022-11-13T05:02:38.675Z,64.08
2022-11-13T05:05:25.496Z,63.95
2022-11-13T05:08:12.826Z,63.97
2022-11-13T05:10:59.285Z,64.20
2022-11-13T05:13:47.168Z,64.06
2022-11-13T05:16:36.240Z,63.78
2022-11-13T05:19:23.136Z,64.04
2022-11-13T05:22:10.810Z,64.11
2022-11-13T05:24:57.387Z,64.23
2022-11-13T05:27:43.925Z,63.92
2022-11-13T05:30:31.730Z,64.19
2022-11-13T05:33:19.723Z,63.63
2022-11-13T05:36:10.017Z,63.94
2022-11-13T05:38:56.857Z,63.77
2022-11-13T05:41:43.049Z,63.70
2022-11-13T05:44:29.939Z,63.82
2022-11-13T05:47:17.857Z,63.34
2022-11-13T05:50:05.394Z,63.44
2022-11-13T05:52:52.048Z,64.00
2022-11-13T05:55:38.710Z,63.83
2022-11-13T05:58:25.666Z,63.76
2022-11-13T06:01:15.060Z,63.45
2022-11-13T06:04:03.760Z,63.52
2022-11-13T06:06:50.692Z,63.36
2022-11-13T06:09:36.989Z,63.53
2022-11-13T06:12:23.920Z,63.44
2022-11-13T06:15:11.446Z,63.49
2022-11-13T06:17:57.888Z,63.15
2022-11-13T06:20:45.914Z,63.28
2022-11-13T06:23:34.414Z,62.85
2022-11-13T06:26:23.465Z,62.98
2022-11-13T06:29:13.477Z,62.96
2022-11-13T06:32:00.090Z,62.89
2022-11-13T06:34:46.539Z,62.88
2022-11-13T06:37:34.897Z,63.15
2022-11-13T06:40:21.201Z,63.56
2022-11-13T06:43:07.703Z,63.52
2022-11-13T06:45:54.783Z,63.07
2022-11-13T06:48:41.464Z,63.09
2022-11-13T06:51:30.531Z,63.67
2022-11-13T06:54:18.855Z,63.82
2022-11-13T06:57:05.076Z,63.75
2022-11-13T06:59:51.560Z,63.36
2022-11-13T07:02:38.082Z,63.42
2022-11-13T07:05:24.864Z,63.39
2022-11-13T07:08:11.649Z,63.19
2022-11-13T07:11:00.771Z,63.41
2022-11-13T07:13:47.737Z,63.65
2022-11-13T07:16:56.250Z,63.52
2022-11-13T07:19:42.678Z,63.24
2022-11-13T07:22:30.428Z,63.33
2022-11-13T07:25:17.582Z,63.28
2022-11-13T07:28:07.560Z,63.30
2022-11-13T07:30:54.463Z,63.27
2022-11-13T07:33:41.195Z,63.41
2022-11-13T07:36:28.062Z,63.25
2022-11-13T07:39:14.959Z,63.30
2022-11-13T07:42:01.512Z,63.55
2022-11-13T07:44:54.452Z,63.57
2022-11-13T07:47:42.205Z,63.30
2022-11-13T07:50:29.900Z,63.36
2022-11-13T07:53:17.372Z,63.54
2022-11-13T07:56:04.585Z,63.55
2022-11-13T07:58:51.158Z,63.60
2022-11-13T08:01:39.160Z,63.66
2022-11-13T08:04:26.049Z,63.80
2022-11-13T08:07:13.608Z,63.67
2022-11-13T08:10:00.743Z,64.02
2022-11-13T08:12:48.319Z,63.91
2022-11-13T08:15:35.299Z,63.85
2022-11-13T08:18:23.227Z,63.61
2022-11-13T08:21:14.655Z,63.49
2022-11-13T08:24:01.892Z,63.49
2022-11-13T08:26:48.248Z,63.29
2022-11-13T08:29:37.424Z,63.53
2022-11-13T08:32:24.592Z,63.42
2022-11-13T08:35:16.043Z,63.45
2022-11-13T08:38:07.656Z,63.88
2022-11-13T08:40:58.203Z,63.79
2022-11-13T08:43:44.641Z,63.38
2022-11-13T08:46:31.647Z,63.10
2022-11-13T08:49:18.325Z,63.23
2022-11-13T08:52:06.910Z,63.39
2022-11-13T08:54:54.695Z,63.23
2022-11-13T08:57:41.718Z,62.86
2022-11-13T09:00:34.822Z,62.87
2022-11-13T09:03:21.348Z,63.43
2022-11-13T09:06:09.009Z,63.05
2022-11-13T09:08:56.947Z,63.03
2022-11-13T09:11:43.571Z,62.95
2022-11-13T09:14:30.736Z,63.04
2022-11-13T09:17:17.497Z,62.77
2022-11-13T09:20:08.796Z,62.52
2022-11-13T09:23:00.050Z,62.68
2022-11-13T09:25:48.990Z,63.05
2022-11-13T09:28:36.067Z,63.26
2022-11-13T09:31:22.931Z,63.43
2022-11-13T09:34:10.115Z,63.20
2022-11-13T09:36:56.716Z,62.85
2022-11-13T09:39:43.276Z,62.48
2022-11-13T09:42:33.426Z,62.63
2022-11-13T09:45:20.394Z,62.71
2022-11-13T09:48:18.519Z,63.31
2022-11-13T09:51:11.867Z,62.86
2022-11-13T09:53:59.542Z,63.17
2022-11-13T09:56:51.917Z,63.16
2022-11-13T09:59:47.571Z,62.80
2022-11-13T10:02:46.582Z,62.78
2022-11-13T10:05:40.660Z,62.69
2022-11-13T10:08:31.175Z,62.60
2022-11-13T10:11:25.882Z,62.97
2022-11-13T10:14:18.691Z,62.68
2022-11-13T10:17:14.683Z,62.59
2022-11-13T10:20:03.617Z,62.77
2022-11-13T10:22:52.426Z,62.80
2022-11-13T10:25:41.386Z,62.79
2022-11-13T10:28:49.299Z,62.78
2022-11-13T10:31:44.171Z,62.97
2022-11-13T10:34:33.687Z,62.97
2022-11-13T10:37:32.193Z,63.17
2022-11-13T10:40:29.470Z,62.80
2022-11-13T10:43:17.809Z,62.52
2022-11-13T10:46:06.704Z,62.75
2022-11-13T10:48:53.959Z,62.51
2022-11-13T10:51:42.280Z,62.38
2022-11-13T10:54:30.729Z,62.96
2022-11-13T10:57:33.226Z,62.28
2022-11-13T11:00:23.099Z,61.99
2022-11-13T11:03:14.710Z,62.02
2022-11-13T11:06:03.445Z,62.36
2022-11-13T11:08:51.336Z,62.12
2022-11-13T11:11:55.472Z,61.40
2022-11-13T11:14:46.191Z,62.00
2022-11-13T11:17:38.494Z,61.54
2022-11-13T11:20:36.614Z,61.30
2022-11-13T11:23:29.514Z,60.49
2022-11-13T11:26:22.655Z,60.83
2022-11-13T11:29:20.603Z,61.23
2022-11-13T11:32:15.920Z,61.07
2022-11-13T11:35:09.345Z,60.92
2022-11-13T11:38:04.170Z,61.66
2022-11-13T11:40:54.828Z,62.98
2022-11-13T11:43:44.506Z,63.20
2022-11-13T11:46:31.476Z,63.56
2022-11-13T11:49:19.156Z,62.79
2022-11-13T11:52:20.772Z,61.37
2022-11-13T11:55:32.520Z,59.71
2022-11-13T11:58:31.416Z,58.86
2022-11-13T12:01:33.760Z,59.31
2022-11-13T12:04:36.043Z,58.37
2022-11-13T12:07:33.912Z,58.17
2022-11-13T12:10:28.290Z,58.09
2022-11-13T12:13:27.130Z,57.90
2022-11-13T12:16:24.848Z,57.20
2022-11-13T12:19:25.065Z,56.97
2022-11-13T12:22:21.470Z,57.26
2022-11-13T12:25:19.038Z,56.76
2022-11-13T12:28:16.486Z,56.17
2022-11-13T12:31:12.629Z,55.95
2022-11-13T12:34:08.573Z,56.03
2022-11-13T12:36:57.061Z,55.02
2022-11-13T12:39:52.998Z,54.03
2022-11-13T12:42:45.450Z,53.92
2022-11-13T12:45:47.312Z,54.23
2022-11-13T12:48:36.627Z,54.00
2022-11-13T12:51:22.855Z,53.92
2022-11-13T12:54:13.365Z,53.54
2022-11-13T12:57:09.104Z,53.59
2022-11-13T12:59:57.606Z,52.80
2022-11-13T13:02:57.062Z,52.72
2022-11-13T13:06:19.741Z,52.14
2022-11-13T13:09:29.380Z,52.17
2022-11-13T13:12:35.913Z,52.07
2022-11-13T13:15:31.679Z,51.83
2022-11-13T13:18:28.262Z,52.79
2022-11-13T13:21:17.640Z,52.74
2022-11-13T13:24:09.906Z,52.67
2022-11-13T13:26:58.498Z,52.04
2022-11-13T13:29:45.084Z,52.25
2022-11-13T13:32:38.428Z,52.31
2022-11-13T13:35:30.942Z,52.51
2022-11-13T13:38:23.265Z,52.88
2022-11-13T13:41:19.927Z,53.20
2022-11-13T13:44:36.202Z,53.51
2022-11-13T13:47:27.401Z,54.29
2022-11-13T13:50:17.099Z,54.38
2022-11-13T13:53:04.221Z,54.42
2022-11-13T13:55:54.003Z,54.30
2022-11-13T13:58:41.943Z,54.75
2022-11-13T14:01:31.961Z,54.49
2022-11-13T14:04:20.758Z,54.07
2022-11-13T14:07:20.751Z,54.06
2022-11-13T14:10:17.448Z,54.39
2022-11-13T14:13:05.382Z,54.75
2022-11-13T14:16:02.005Z,55.39
2022-11-13T14:18:49.727Z,54.87
2022-11-13T14:21:37.687Z,55.56
2022-11-13T14:24:30.284Z,55.54
2022-11-13T14:27:19.912Z,55.87
2022-11-13T14:30:21.202Z,55.96
2022-11-13T14:33:10.768Z,55.77
2022-11-13T14:36:00.327Z,55.88
2022-11-13T14:38:52.110Z,56.34
2022-11-13T14:41:43.024Z,56.40
2022-11-13T14:44:32.600Z,56.41
2022-11-13T14:47:55.353Z,56.61
2022-11-13T14:50:52.457Z,56.51
2022-11-13T14:53:43.450Z,56.60
2022-11-13T14:56:35.852Z,56.57
2022-11-13T14:59:27.398Z,56.64
2022-11-13T15:02:14.840Z,56.59
2022-11-13T15:05:01.196Z,56.79
2022-11-13T15:07:48.052Z,56.56
2022-11-13T15:10:38.165Z,56.76
2022-11-13T15:13:25.078Z,56.84
2022-11-13T15:16:16.886Z,56.80
2022-11-13T15:19:07.221Z,57.13
2022-11-13T15:25:00.715Z,56.89
2022-11-13T15:27:48.845Z,56.79
2022-11-13T15:30:35.246Z,57.12
2022-11-13T15:33:22.158Z,57.45
2022-11-13T15:36:12.201Z,56.89
2022-11-13T15:39:02.349Z,56.80
2022-11-13T15:41:53.383Z,57.07
2022-11-13T15:44:41.843Z,56.83
2022-11-13T15:47:31.587Z,57.12
2022-11-13T15:50:18.330Z,57.19
2022-11-13T15:53:05.763Z,57.40
2022-11-13T15:55:52.680Z,57.28
2022-11-13T15:58:39.321Z,56.91
2022-11-13T16:01:27.577Z,56.98
2022-11-13T16:04:16.199Z,57.32
2022-11-13T16:07:02.968Z,57.09
2022-11-13T16:09:49.158Z,56.98
2022-11-13T16:12:35.924Z,57.33
2022-11-13T16:15:22.979Z,57.68
2022-11-13T16:18:21.186Z,57.71
2022-11-13T16:21:11.576Z,57.35
2022-11-13T16:23:58.768Z,57.70
2022-11-13T16:26:49.669Z,57.53
2022-11-13T16:29:36.629Z,57.41
2022-11-13T16:32:24.399Z,57.26
2022-11-13T16:35:17.483Z,57.40
2022-11-13T16:38:05.366Z,57.24
2022-11-13T16:40:52.242Z,57.33
2022-11-13T16:43:39.878Z,57.26
2022-11-13T16:46:29.906Z,57.35
2022-11-13T16:49:19.375Z,57.11
2022-11-13T16:52:08.025Z,57.05
2022-11-13T16:54:54.706Z,57.17
2022-11-13T16:57:41.550Z,56.96
2022-11-13T17:00:28.873Z,57.01
2022-11-13T17:03:15.362Z,56.63
2022-11-13T17:06:01.872Z,56.73
2022-11-13T17:08:51.962Z,56.73
2022-11-13T17:11:38.770Z,56.37
2022-11-13T17:14:25.049Z,56.34
2022-11-13T17:17:14.443Z,56.18
2022-11-13T17:20:00.881Z,55.34
2022-11-13T17:22:49.185Z,56.07
2022-11-13T17:25:37.253Z,55.75
2022-11-13T17:28:24.039Z,55.93
2022-11-13T17:31:12.984Z,55.44
2022-11-13T17:33:59.830Z,54.94
2022-11-13T17:36:46.399Z,55.45
2022-11-13T17:39:33.253Z,55.36
2022-11-13T17:42:21.352Z,55.46
2022-11-13T17:45:09.328Z,55.42
2022-11-13T17:47:56.210Z,55.03
2022-11-13T17:50:43.237Z,55.00
2022-11-13T17:53:30.706Z,54.95
2022-11-13T17:56:20.062Z,54.81
2022-11-13T17:59:20.864Z,54.65
2022-11-13T18:02:07.497Z,55.07
2022-11-13T18:04:56.318Z,54.56
2022-11-13T18:07:42.787Z,54.69
2022-11-13T18:10:29.271Z,55.33
2022-11-13T18:13:17.276Z,55.26
2022-11-13T18:16:10.003Z,55.72
2022-11-13T18:18:58.417Z,55.02
2022-11-13T18:21:45.282Z,55.16
2022-11-13T18:24:31.897Z,54.76
2022-11-13T18:27:18.632Z,54.67
2022-11-13T18:30:07.109Z,55.21
2022-11-13T18:32:55.112Z,54.82
2022-11-13T18:35:42.158Z,55.31
2022-11-13T18:38:29.471Z,55.51
2022-11-13T18:41:18.074Z,55.32
2022-11-13T18:44:05.410Z,55.38
2022-11-13T18:46:51.749Z,56.06
2022-11-13T18:49:39.937Z,56.05
2022-11-13T18:52:26.686Z,55.71
2022-11-13T18:55:14.004Z,56.15
2022-11-13T18:58:00.496Z,55.37
2022-11-13T19:00:47.192Z,55.65
2022-11-13T19:03:34.675Z,56.47
2022-11-13T19:06:24.968Z,56.61
2022-11-13T19:09:13.646Z,56.91
2022-11-13T19:12:00.645Z,56.84
2022-11-13T19:14:50.314Z,57.10
2022-11-13T19:17:41.401Z,57.14
2022-11-13T19:20:28.002Z,57.08
2022-11-13T19:23:17.007Z,58.07
2022-11-13T19:26:04.692Z,57.87
2022-11-13T19:28:52.855Z,57.93
2022-11-13T19:31:39.575Z,58.36
2022-11-13T19:34:26.058Z,58.43
2022-11-13T19:37:19.135Z,58.34
2022-11-13T19:40:08.549Z,58.43
2022-11-13T19:42:55.909Z,58.72
2022-11-13T19:45:43.012Z,59.03
2022-11-13T19:48:29.943Z,59.31
2022-11-13T19:51:18.566Z,59.32
2022-11-13T19:54:05.287Z,59.10
2022-11-13T19:56:53.700Z,58.97
2022-11-13T19:59:40.899Z,59.04
2022-11-13T20:02:27.346Z,58.87
2022-11-13T20:05:14.270Z,58.75
2022-11-13T20:08:01.271Z,58.87
2022-11-13T20:10:48.387Z,58.70
2022-11-13T20:13:38.941Z,59.67
2022-11-13T20:16:26.139Z,59.37
2022-11-13T20:19:12.561Z,59.04
2022-11-13T20:21:59.867Z,59.79
2022-11-13T20:24:49.023Z,59.64
2022-11-13T20:27:37.414Z,60.00
2022-11-13T20:30:25.882Z,59.99
2022-11-13T20:33:12.562Z,61.05
2022-11-13T20:35:59.492Z,61.04
2022-11-13T20:38:55.616Z,60.84
2022-11-13T20:41:42.670Z,61.04
2022-11-13T20:44:29.541Z,60.81
2022-11-13T20:47:17.684Z,60.52
2022-11-13T20:50:04.064Z,60.47
2022-11-13T20:52:50.749Z,60.94
2022-11-13T20:55:37.491Z,61.17
2022-11-13T20:58:24.102Z,61.47
2022-11-13T21:01:13.230Z,60.97
2022-11-13T21:04:01.281Z,60.31
2022-11-13T21:06:48.081Z,61.25
2022-11-13T21:09:34.699Z,61.16
2022-11-13T21:12:21.543Z,60.64
2022-11-13T21:15:09.224Z,61.20
2022-11-13T21:17:59.460Z,61.45
2022-11-13T21:20:48.053Z,61.66
2022-11-13T21:23:34.791Z,62.60
2022-11-13T21:26:21.407Z,61.25
2022-11-13T21:29:08.303Z,61.61
2022-11-13T21:31:54.912Z,61.53
2022-11-13T21:34:41.310Z,62.02
2022-11-13T21:37:29.326Z,62.07
2022-11-13T21:40:16.155Z,61.47
2022-11-13T21:43:03.097Z,62.52
2022-11-13T21:45:49.702Z,62.27
2022-11-13T21:48:36.297Z,62.04
2022-11-13T21:51:23.263Z,61.91
2022-11-13T21:54:11.545Z,62.09
2022-11-13T21:56:57.836Z,62.37
2022-11-13T21:59:44.387Z,62.37
2022-11-13T22:02:31.120Z,62.77
2022-11-13T22:05:17.538Z,63.58
2022-11-13T22:08:04.068Z,62.92
2022-11-13T22:10:52.061Z,62.14
2022-11-13T22:13:38.867Z,62.54
2022-11-13T22:16:26.868Z,62.97
2022-11-13T22:19:15.832Z,63.53
2022-11-13T22:22:02.619Z,64.39
2022-11-13T22:24:48.916Z,64.18
2022-11-13T22:27:36.776Z,63.33
2022-11-13T22:30:23.236Z,64.01
2022-11-13T22:33:09.550Z,63.39
2022-11-13T22:36:01.812Z,63.73
2022-11-13T22:38:48.668Z,63.70
2022-11-13T22:41:36.847Z,63.87
2022-11-13T22:44:35.070Z,63.63
2022-11-13T22:47:35.684Z,63.14
2022-11-13T22:50:25.056Z,63.88
2022-11-13T22:53:14.581Z,63.22
2022-11-13T22:56:02.658Z,63.30
2022-11-13T22:58:49.653Z,64.05
2022-11-13T23:01:39.230Z,64.09
2022-11-13T23:04:25.849Z,64.46
2022-11-13T23:07:12.623Z,64.14
2022-11-13T23:09:59.600Z,63.85
2022-11-13T23:12:45.896Z,63.89
2022-11-13T23:15:32.264Z,64.18
2022-11-13T23:18:20.470Z,64.22
2022-11-13T23:21:08.056Z,64.64
2022-11-13T23:23:55.424Z,64.27
2022-11-13T23:26:42.023Z,64.54
2022-11-13T23:29:28.562Z,64.11
2022-11-13T23:32:15.126Z,64.11
2022-11-13T23:35:03.270Z,64.09
2022-11-13T23:37:49.763Z,64.37
2022-11-13T23:40:36.391Z,64.12
2022-11-13T23:43:23.578Z,64.58
2022-11-13T23:46:13.292Z,64.40
2022-11-13T23:49:00.091Z,64.55
2022-11-13T23:51:47.984Z,63.94
2022-11-13T23:54:34.588Z,64.32
2022-11-13T23:57:21.354Z,64.08
